Time;durP1;ratioP1;P1;durP2;ratioP2;P2;SDS_P1;SDS_P2;PMS_P1;PMS_P2;Temp;Humidity;BMP_temperature;BMP_pressure;BME280_temperature;BME280_humidity;BME280_pressure;Samples;Min_cycle;Max_cycle;Signal;HPM_P1;HPM_P2
2022/11/13 00:01:23;;;;;;;17.50;10.35;;;;;;;;;;5055469;28;20051;-81
2022/11/13 00:03:49;;;;;;;21.80;10.43;;;;;;;;;;5038808;28;20024;-81
2022/11/13 00:06:17;;;;;;;22.55;10.50;;;;;;;;;;5055420;28;20450;-78
2022/11/13 00:08:43;;;;;;;20.10;10.50;;;;;;;;;;5053236;28;20025;-80
2022/11/13 00:11:17;;;;;;;19.50;10.10;;;;;;;;;;5052454;28;20051;-78
2022/11/13 00:13:45;;;;;;;19.98;9.68;;;;;;;;;;5034337;28;20065;-80
2022/11/13 00:16:14;;;;;;;19.98;9.55;;;;;;;;;;5052349;28;20048;-80
2022/11/13 00:18:42;;;;;;;17.30;9.43;;;;;;;;;;5034781;28;20033;-80
2022/11/13 00:21:11;;;;;;;16.20;8.75;;;;;;;;;;5052106;28;20040;-80
2022/11/13 00:23:37;;;;;;;20.65;9.77;;;;;;;;;;5051704;28;20455;-81
2022/11/13 00:26:11;;;;;;;15.48;8.23;;;;;;;;;;5052571;28;20025;-78
2022/11/13 00:28:39;;;;;;;21.55;9.27;;;;;;;;;;5052820;28;20052;-80
2022/11/13 00:31:14;;;;;;;17.35;9.38;;;;;;;;;;5051918;28;20055;-79
2022/11/13 00:33:40;;;;;;;18.30;8.70;;;;;;;;;;5052198;28;20457;-78
2022/11/13 00:36:10;;;;;;;18.48;9.45;;;;;;;;;;5034887;28;20032;-81
2022/11/13 00:38:35;;;;;;;18.65;8.45;;;;;;;;;;5037033;28;20041;-79
2022/11/13 00:41:03;;;;;;;18.13;9.18;;;;;;;;;;5055978;28;20030;-80
2022/11/13 00:43:43;;;;;;;17.75;8.45;;;;;;;;;;5056620;28;20068;-79
2022/11/13 00:46:10;;;;;;;14.77;8.05;;;;;;;;;;5056237;28;20021;-79
2022/11/13 00:48:39;;;;;;;17.00;8.27;;;;;;;;;;5055886;28;20025;-80
2022/11/13 00:51:09;;;;;;;17.05;8.70;;;;;;;;;;5038642;28;20534;-81
2022/11/13 00:53:35;;;;;;;15.95;8.63;;;;;;;;;;5056181;28;20057;-79
2022/11/13 00:56:07;;;;;;;16.40;9.10;;;;;;;;;;5056150;28;20080;-81
2022/11/13 00:58:35;;;;;;;19.70;8.20;;;;;;;;;;5056169;28;20021;-81
2022/11/13 01:01:11;;;;;;;17.63;8.75;;;;;;;;;;5056040;28;20453;-81
2022/11/13 01:03:45;;;;;;;16.63;7.75;;;;;;;;;;5056015;28;20025;-78
2022/11/13 01:06:11;;;;;;;12.80;6.78;;;;;;;;;;5056450;28;20032;-78
2022/11/13 01:08:44;;;;;;;16.08;8.30;;;;;;;;;;5055631;28;20599;-80
2022/11/13 01:11:13;;;;;;;17.02;8.43;;;;;;;;;;5055462;28;20117;-80
2022/11/13 01:13:45;;;;;;;13.13;7.80;;;;;;;;;;5037497;28;20115;-78
2022/11/13 01:16:11;;;;;;;15.52;7.95;;;;;;;;;;5037964;28;20035;-78
2022/11/13 01:18:40;;;;;;;12.57;7.10;;;;;;;;;;5037145;28;20032;-80
2022/11/13 01:21:11;;;;;;;14.43;7.65;;;;;;;;;;5055671;28;20104;-80
2022/11/13 01:23:37;;;;;;;15.98;8.20;;;;;;;;;;5036966;28;20093;-79
2022/11/13 01:26:17;;;;;;;16.00;8.32;;;;;;;;;;5037250;28;20075;-80
2022/11/13 01:28:43;;;;;;;16.45;7.22;;;;;;;;;;5037347;28;20547;-80
2022/11/13 01:31:15;;;;;;;12.90;6.78;;;;;;;;;;5055300;28;20033;-79
2022/11/13 01:33:42;;;;;;;15.07;7.53;;;;;;;;;;5053931;28;20075;-80
2022/11/13 01:36:12;;;;;;;14.65;7.60;;;;;;;;;;5053814;28;20028;-79
2022/11/13 01:38:38;;;;;;;14.90;7.40;;;;;;;;;;5053588;28;20079;-79
2022/11/13 01:41:07;;;;;;;14.43;7.32;;;;;;;;;;5053735;28;20037;-80
2022/11/13 01:43:35;;;;;;;15.55;7.78;;;;;;;;;;5054026;28;20371;-79
2022/11/13 01:46:07;;;;;;;14.18;7.43;;;;;;;;;;5054508;28;20541;-78
2022/11/13 01:48:38;;;;;;;13.32;7.15;;;;;;;;;;5055004;28;20025;-80
2022/11/13 01:51:11;;;;;;;13.70;7.40;;;;;;;;;;5055127;28;20056;-79
2022/11/13 01:53:41;;;;;;;15.80;7.63;;;;;;;;;;5055048;28;20102;-80
2022/11/13 01:56:07;;;;;;;12.30;7.00;;;;;;;;;;5055347;28;20028;-79
2022/11/13 01:58:33;;;;;;;18.35;8.30;;;;;;;;;;5054696;28;20112;-80
2022/11/13 02:00:58;;;;;;;13.32;7.57;;;;;;;;;;5054997;28;20037;-80
2022/11/13 02:03:24;;;;;;;14.13;7.97;;;;;;;;;;5036738;28;20043;-81
2022/11/13 02:05:52;;;;;;;17.27;7.78;;;;;;;;;;5054837;28;20029;-80
2022/11/13 02:08:18;;;;;;;13.77;7.60;;;;;;;;;;5037205;28;20040;-80
2022/11/13 02:10:46;;;;;;;11.75;6.80;;;;;;;;;;5037188;28;20028;-80
2022/11/13 02:13:16;;;;;;;14.95;7.82;;;;;;;;;;5055715;28;20380;-79
2022/11/13 02:15:44;;;;;;;16.48;7.38;;;;;;;;;;5036846;28;20078;-79
2022/11/13 02:18:10;;;;;;;11.95;6.93;;;;;;;;;;5054964;28;20028;-80
2022/11/13 02:20:53;;;;;;;14.00;7.60;;;;;;;;;;5036950;28;20028;-80
2022/11/13 02:23:27;;;;;;;14.75;8.00;;;;;;;;;;5035881;28;20149;-79
2022/11/13 02:25:53;;;;;;;15.80;7.32;;;;;;;;;;5054652;28;20057;-80
2022/11/13 02:28:18;;;;;;;13.85;7.00;;;;;;;;;;5054797;28;20071;-81
2022/11/13 02:30:44;;;;;;;14.68;6.95;;;;;;;;;;5037593;28;20037;-79
2022/11/13 02:33:31;;;;;;;18.13;7.63;;;;;;;;;;5055071;28;20096;-80
2022/11/13 02:35:56;;;;;;;15.00;6.63;;;;;;;;;;5054434;28;20503;-80
2022/11/13 02:38:22;;;;;;;11.82;6.90;;;;;;;;;;5054361;28;20110;-80
2022/11/13 02:40:47;;;;;;;12.98;6.55;;;;;;;;;;5054516;28;20035;-79
2022/11/13 02:43:13;;;;;;;14.50;7.20;;;;;;;;;;5054472;28;20028;-81
2022/11/13 02:45:38;;;;;;;14.05;6.97;;;;;;;;;;5054501;28;20084;-79
2022/11/13 02:48:05;;;;;;;13.88;6.88;;;;;;;;;;5036060;28;20086;-80
2022/11/13 02:50:34;;;;;;;14.98;7.40;;;;;;;;;;5036251;28;20020;-79
2022/11/13 02:53:03;;;;;;;12.05;6.78;;;;;;;;;;5036663;28;20053;-81
2022/11/13 02:55:28;;;;;;;14.02;6.65;;;;;;;;;;5055037;28;20398;-79
2022/11/13 02:57:53;;;;;;;14.75;6.95;;;;;;;;;;5037029;28;20025;-80
2022/11/13 03:00:19;;;;;;;14.93;7.25;;;;;;;;;;5035436;28;20025;-79
2022/11/13 03:02:44;;;;;;;13.57;6.70;;;;;;;;;;5054440;28;20043;-80
2022/11/13 03:05:09;;;;;;;13.13;7.60;;;;;;;;;;5054470;28;20094;-80
2022/11/13 03:07:34;;;;;;;13.40;7.30;;;;;;;;;;5054915;28;20581;-79
2022/11/13 03:10:00;;;;;;;15.55;7.50;;;;;;;;;;5054995;28;20024;-80
2022/11/13 03:12:25;;;;;;;13.93;7.45;;;;;;;;;;5053582;28;20021;-79
2022/11/13 03:14:50;;;;;;;12.23;6.72;;;;;;;;;;5036517;28;20032;-80
2022/11/13 03:17:15;;;;;;;13.93;7.07;;;;;;;;;;5053961;28;20025;-79
2022/11/13 03:19:41;;;;;;;14.00;7.50;;;;;;;;;;5035916;28;20099;-80
2022/11/13 03:22:06;;;;;;;13.02;7.07;;;;;;;;;;5053910;28;20039;-79
2022/11/13 03:24:31;;;;;;;12.27;6.95;;;;;;;;;;5053594;28;20032;-79
2022/11/13 03:26:56;;;;;;;14.80;7.38;;;;;;;;;;5054536;28;20021;-81
2022/11/13 03:29:22;;;;;;;11.77;7.05;;;;;;;;;;5036281;28;20028;-80
2022/11/13 03:31:47;;;;;;;13.68;8.10;;;;;;;;;;5054224;28;20032;-78
2022/11/13 03:34:12;;;;;;;14.32;8.13;;;;;;;;;;5054489;28;20037;-80
2022/11/13 03:36:41;;;;;;;13.38;7.70;;;;;;;;;;5053711;28;20052;-79
2022/11/13 03:39:06;;;;;;;12.82;7.88;;;;;;;;;;5053949;28;20074;-79
2022/11/13 03:41:31;;;;;;;12.93;7.50;;;;;;;;;;5053880;28;20024;-80
2022/11/13 03:43:56;;;;;;;15.20;7.40;;;;;;;;;;5054269;28;20025;-78
2022/11/13 03:46:22;;;;;;;12.38;7.25;;;;;;;;;;5035945;28;20106;-80
2022/11/13 03:48:47;;;;;;;16.13;8.07;;;;;;;;;;5054311;28;20025;-79
2022/11/13 03:51:12;;;;;;;13.18;7.47;;;;;;;;;;5054208;28;20393;-80
2022/11/13 03:53:38;;;;;;;14.00;7.88;;;;;;;;;;5054247;28;20027;-79
2022/11/13 03:56:03;;;;;;;15.75;7.55;;;;;;;;;;5054206;28;20033;-78
2022/11/13 03:58:28;;;;;;;17.55;7.63;;;;;;;;;;5054669;28;20028;-79
2022/11/13 04:00:55;;;;;;;13.80;7.47;;;;;;;;;;5053458;28;20041;-79
2022/11/13 04:03:20;;;;;;;12.75;7.07;;;;;;;;;;5054305;28;20052;-80
2022/11/13 04:05:48;;;;;;;13.75;7.32;;;;;;;;;;5054777;28;20024;-80
2022/11/13 04:08:13;;;;;;;13.95;7.05;;;;;;;;;;5057270;28;20025;-78
2022/11/13 04:10:39;;;;;;;13.75;7.45;;;;;;;;;;5038775;28;20025;-79
2022/11/13 04:13:05;;;;;;;11.45;6.68;;;;;;;;;;5042705;28;20036;-81
2022/11/13 04:15:30;;;;;;;13.13;7.30;;;;;;;;;;5060483;28;20442;-79
2022/11/13 04:17:55;;;;;;;14.98;8.00;;;;;;;;;;5060281;28;20033;-79
2022/11/13 04:20:21;;;;;;;15.15;7.47;;;;;;;;;;5060243;28;20037;-80
2022/11/13 04:22:46;;;;;;;13.13;7.13;;;;;;;;;;5041572;28;20071;-80
2022/11/13 04:25:11;;;;;;;13.18;7.03;;;;;;;;;;5060346;28;20106;-79
2022/11/13 04:27:37;;;;;;;15.23;7.95;;;;;;;;;;5060068;28;20029;-79
2022/11/13 04:30:04;;;;;;;14.48;7.18;;;;;;;;;;5043135;28;20017;-79
2022/11/13 04:32:31;;;;;;;14.00;7.78;;;;;;;;;;5059749;28;20025;-79
2022/11/13 04:34:56;;;;;;;12.45;6.70;;;;;;;;;;5060647;28;20035;-79
2022/11/13 04:37:21;;;;;;;13.52;7.03;;;;;;;;;;5060894;28;20088;-80
2022/11/13 04:39:47;;;;;;;12.68;7.20;;;;;;;;;;5060578;28;20098;-79
2022/11/13 04:44:56;;;;;;;10.45;6.50;;;;;;;;;;5060831;28;20056;-79
2022/11/13 04:47:21;;;;;;;11.23;6.03;;;;;;;;;;5043194;28;20021;-78
2022/11/13 04:49:46;;;;;;;12.35;6.90;;;;;;;;;;5043248;28;20071;-78
2022/11/13 04:52:12;;;;;;;13.38;6.05;;;;;;;;;;5042942;28;20029;-81
2022/11/13 04:54:37;;;;;;;11.57;5.95;;;;;;;;;;5060724;28;20060;-79
2022/11/13 04:57:03;;;;;;;11.48;6.60;;;;;;;;;;5060218;28;20131;-79
2022/11/13 04:59:28;;;;;;;10.35;5.95;;;;;;;;;;5042470;28;20025;-79
2022/11/13 05:01:54;;;;;;;10.38;5.40;;;;;;;;;;5060127;28;20541;-78
2022/11/13 05:04:19;;;;;;;14.20;5.97;;;;;;;;;;5042358;28;20566;-79
2022/11/13 05:06:45;;;;;;;11.43;5.60;;;;;;;;;;5060284;28;20025;-78
2022/11/13 05:09:10;;;;;;;9.07;5.07;;;;;;;;;;5060096;28;20017;-82
2022/11/13 05:11:35;;;;;;;10.05;5.32;;;;;;;;;;5042635;28;20031;-83
2022/11/13 05:14:01;;;;;;;9.18;5.22;;;;;;;;;;5059969;28;20021;-78
2022/11/13 05:16:26;;;;;;;12.23;5.55;;;;;;;;;;5060280;28;20482;-79
2022/11/13 05:18:51;;;;;;;10.77;5.55;;;;;;;;;;5041888;28;20083;-79
2022/11/13 05:21:16;;;;;;;10.95;5.38;;;;;;;;;;5060377;28;20100;-79
2022/11/13 05:23:42;;;;;;;8.57;4.63;;;;;;;;;;5057981;28;20025;-80
2022/11/13 05:26:12;;;;;;;13.65;6.05;;;;;;;;;;5059232;28;20021;-79
2022/11/13 05:28:38;;;;;;;8.10;4.20;;;;;;;;;;5059281;28;20039;-79
2022/11/13 05:31:09;;;;;;;8.85;5.20;;;;;;;;;;5060156;28;20021;-81
2022/11/13 05:33:36;;;;;;;9.48;5.00;;;;;;;;;;5040980;28;20036;-81
2022/11/13 05:36:04;;;;;;;9.55;5.20;;;;;;;;;;5041478;28;20033;-79
2022/11/13 05:38:30;;;;;;;8.30;4.80;;;;;;;;;;5041323;28;20522;-79
2022/11/13 05:41:10;;;;;;;8.65;4.30;;;;;;;;;;5041425;28;20067;-81
2022/11/13 05:43:37;;;;;;;9.00;5.38;;;;;;;;;;5020294;28;20052;-79
2022/11/13 05:46:16;;;;;;;9.85;4.70;;;;;;;;;;5019877;28;20033;-80
2022/11/13 05:48:42;;;;;;;10.80;5.05;;;;;;;;;;5047243;28;20323;-79
2022/11/13 05:51:13;;;;;;;10.25;5.00;;;;;;;;;;5041063;28;20445;-81
2022/11/13 05:53:39;;;;;;;8.23;4.45;;;;;;;;;;5058785;28;20107;-79
2022/11/13 05:56:11;;;;;;;9.13;4.43;;;;;;;;;;5058293;28;20439;-79
2022/11/13 05:58:37;;;;;;;8.43;4.15;;;;;;;;;;5041287;28;20029;-81
2022/11/13 06:01:13;;;;;;;9.80;4.97;;;;;;;;;;5041088;28;20024;-80
2022/11/13 06:03:39;;;;;;;11.90;5.22;;;;;;;;;;5059442;28;20031;-78
2022/11/13 06:06:06;;;;;;;8.77;4.57;;;;;;;;;;5041248;28;20470;-78
2022/11/13 06:08:32;;;;;;;10.88;5.03;;;;;;;;;;5059096;28;20025;-78
2022/11/13 06:11:02;;;;;;;9.07;4.85;;;;;;;;;;5058982;28;20040;-78
2022/11/13 06:13:28;;;;;;;9.90;4.95;;;;;;;;;;5058660;28;20075;-79
2022/11/13 06:15:58;;;;;;;9.00;4.75;;;;;;;;;;5040970;28;20080;-79
2022/11/13 06:18:23;;;;;;;10.38;5.30;;;;;;;;;;5058248;28;20067;-81
2022/11/13 06:20:49;;;;;;;12.10;5.32;;;;;;;;;;5059152;28;20036;-79
2022/11/13 06:23:14;;;;;;;9.88;5.18;;;;;;;;;;5040029;28;20027;-80
2022/11/13 06:25:40;;;;;;;10.10;5.28;;;;;;;;;;5059263;28;20036;-79
2022/11/13 06:28:05;;;;;;;11.38;6.03;;;;;;;;;;5059201;28;20442;-79
2022/11/13 06:30:31;;;;;;;12.43;5.47;;;;;;;;;;5059353;28;20067;-82
2022/11/13 06:32:56;;;;;;;11.10;5.65;;;;;;;;;;5058678;28;20060;-78
2022/11/13 06:35:21;;;;;;;9.30;4.70;;;;;;;;;;5057510;28;20083;-79
2022/11/13 06:37:46;;;;;;;12.85;6.05;;;;;;;;;;5040510;28;20024;-80
2022/11/13 06:40:12;;;;;;;11.90;5.00;;;;;;;;;;5058298;28;20029;-80
2022/11/13 06:42:38;;;;;;;12.55;6.22;;;;;;;;;;5040374;28;20045;-79
2022/11/13 06:45:04;;;;;;;10.93;5.78;;;;;;;;;;5058824;28;20025;-80
2022/11/13 06:47:29;;;;;;;11.20;5.47;;;;;;;;;;5057484;28;20486;-78
2022/11/13 06:49:54;;;;;;;11.95;5.82;;;;;;;;;;5038975;28;20115;-79
2022/11/13 06:52:19;;;;;;;11.27;5.95;;;;;;;;;;5057382;28;20024;-80
2022/11/13 06:54:45;;;;;;;9.63;5.68;;;;;;;;;;5057014;28;20070;-79
2022/11/13 06:57:10;;;;;;;11.63;5.45;;;;;;;;;;5038702;28;20116;-78
2022/11/13 06:59:35;;;;;;;11.80;5.32;;;;;;;;;;5038262;28;20021;-81
2022/11/13 07:02:01;;;;;;;9.63;5.50;;;;;;;;;;5056415;28;20078;-79
2022/11/13 07:04:27;;;;;;;10.25;5.82;;;;;;;;;;5057056;28;20021;-80
2022/11/13 07:06:55;;;;;;;11.73;6.00;;;;;;;;;;5056088;28;20074;-80
2022/11/13 07:09:20;;;;;;;9.88;5.68;;;;;;;;;;5056281;28;20032;-78
2022/11/13 07:11:45;;;;;;;9.35;5.28;;;;;;;;;;5055897;28;20037;-79
2022/11/13 07:14:11;;;;;;;11.23;6.00;;;;;;;;;;5056680;28;20056;-80
2022/11/13 07:16:37;;;;;;;11.85;6.43;;;;;;;;;;5056487;28;20367;-79
2022/11/13 07:19:02;;;;;;;12.07;5.70;;;;;;;;;;5056310;28;20048;-79
2022/11/13 07:21:28;;;;;;;11.82;5.95;;;;;;;;;;5056048;28;20079;-79
2022/11/13 07:23:53;;;;;;;9.85;5.72;;;;;;;;;;5038289;28;20017;-79
2022/11/13 07:26:18;;;;;;;10.35;5.95;;;;;;;;;;5056437;28;20021;-78
2022/11/13 07:28:45;;;;;;;10.70;6.35;;;;;;;;;;5057015;28;20025;-80
2022/11/13 07:31:12;;;;;;;11.95;6.05;;;;;;;;;;5038140;28;20020;-79
2022/11/13 07:33:37;;;;;;;11.82;5.75;;;;;;;;;;5056483;28;20028;-79
2022/11/13 07:36:03;;;;;;;15.98;5.53;;;;;;;;;;5056360;28;20486;-78
2022/11/13 07:38:28;;;;;;;8.18;4.43;;;;;;;;;;5056091;28;20017;-79
2022/11/13 07:40:56;;;;;;;9.70;5.30;;;;;;;;;;5056006;28;20064;-80
2022/11/13 07:43:21;;;;;;;8.68;4.97;;;;;;;;;;5057094;28;20032;-79
2022/11/13 07:45:46;;;;;;;12.73;5.82;;;;;;;;;;5055846;28;20021;-78
2022/11/13 07:48:11;;;;;;;10.05;4.93;;;;;;;;;;5056285;28;20025;-79
2022/11/13 07:50:37;;;;;;;14.73;5.78;;;;;;;;;;5038463;28;20025;-79
2022/11/13 07:53:06;;;;;;;10.93;5.35;;;;;;;;;;5056786;28;20032;-79
2022/11/13 07:55:36;;;;;;;9.35;5.10;;;;;;;;;;5056736;28;20398;-80
2022/11/13 07:58:30;;;;;;;9.48;5.40;;;;;;;;;;5027628;28;20129;-80
2022/11/13 08:01:20;;;;;;;12.32;5.70;;;;;;;;;;5019581;28;20136;-79
2022/11/13 08:04:00;;;;;;;11.05;5.50;;;;;;;;;;5037357;28;20439;-80
2022/11/13 08:06:29;;;;;;;11.00;5.18;;;;;;;;;;5037157;28;20021;-79
2022/11/13 08:08:57;;;;;;;10.40;5.60;;;;;;;;;;5017969;28;20026;-79
2022/11/13 08:11:28;;;;;;;8.93;5.38;;;;;;;;;;5017337;28;20022;-78
2022/11/13 08:13:59;;;;;;;11.75;5.82;;;;;;;;;;5018152;28;20491;-79
2022/11/13 08:16:27;;;;;;;10.02;5.43;;;;;;;;;;5017959;28;20049;-80
2022/11/13 08:19:03;;;;;;;8.52;4.38;;;;;;;;;;5017025;28;20030;-79
2022/11/13 08:21:31;;;;;;;9.00;5.07;;;;;;;;;;5017149;28;20026;-80
2022/11/13 08:24:23;;;;;;;8.38;4.90;;;;;;;;;;4999037;28;20049;-81
2022/11/13 08:26:56;;;;;;;11.77;5.30;;;;;;;;;;5000392;28;20034;-79
2022/11/13 08:29:51;;;;;;;8.18;4.90;;;;;;;;;;5036615;28;20057;-80
2022/11/13 08:32:23;;;;;;;8.60;4.70;;;;;;;;;;5037317;28;20021;-81
2022/11/13 08:34:57;;;;;;;8.73;4.78;;;;;;;;;;5036590;28;20025;-78
2022/11/13 08:38:00;;;;;;;;;;;;;;;;;;;;;
2022/11/13 08:40:26;;;;;;;8.88;4.57;;;;;;;;;;5036670;28;20534;-80
2022/11/13 08:43:12;;;;;;;11.57;4.78;;;;;;;;;;5039045;28;20067;-80
2022/11/13 08:46:21;;;;;;;3.35;1.75;;;;;;;;;;5024847;28;20589;-81
2022/11/13 08:49:22;;;;;;;7.40;4.00;;;;;;;;;;5036564;28;20026;-79
2022/11/13 08:55:09;;;;;;;7.72;4.18;;;;;;;;;;5007809;28;20044;-81
2022/11/13 08:57:58;;;;;;;8.93;4.40;;;;;;;;;;5018813;28;20029;-81
2022/11/13 09:01:03;;;;;;;9.48;4.43;;;;;;;;;;5022197;28;20023;-80
2022/11/13 09:03:36;;;;;;;9.23;4.93;;;;;;;;;;5019342;28;20042;-80
2022/11/13 09:06:59;;;;;;;;;;;;;;;;;;;;;
2022/11/13 09:10:23;;;;;;;7.82;4.25;;;;;;;;;;5039802;28;20459;-80
2022/11/13 09:13:00;;;;;;;11.15;5.10;;;;;;;;;;5023594;28;20052;-82
2022/11/13 09:15:30;;;;;;;7.18;4.20;;;;;;;;;;5041211;28;20425;-81
2022/11/13 09:18:05;;;;;;;11.07;5.45;;;;;;;;;;5042140;28;20052;-82
2022/11/13 09:20:54;;;;;;;8.10;4.50;;;;;;;;;;5041980;28;20083;-79
2022/11/13 09:23:56;;;;;;;9.98;4.65;;;;;;;;;;5025949;28;20104;-79
2022/11/13 09:26:35;;;;;;;10.60;4.82;;;;;;;;;;5024111;28;20017;-81
2022/11/13 09:29:36;;;;;;;11.27;5.30;;;;;;;;;;5040698;28;20060;-80
2022/11/13 09:32:04;;;;;;;10.27;5.53;;;;;;;;;;4961737;28;20039;-80
2022/11/13 09:34:33;;;;;;;10.65;5.18;;;;;;;;;;5040855;28;20482;-81
2022/11/13 09:37:01;;;;;;;8.32;4.40;;;;;;;;;;5041631;28;20029;-81
2022/11/13 09:39:29;;;;;;;8.52;5.38;;;;;;;;;;5041142;28;20032;-81
2022/11/13 09:42:23;;;;;;;8.40;4.72;;;;;;;;;;5007261;28;20060;-81
2022/11/13 09:45:18;;;;;;;;;;;;;;;;;;5021770;28;20061;-81
2022/11/13 09:47:48;;;;;;;8.97;4.63;;;;;;;;;;5022220;28;19910;-78
2022/11/13 09:50:25;;;;;;;8.43;4.95;;;;;;;;;;5021936;28;20018;-81
2022/11/13 09:53:26;;;;;;;;;;;;;;;;;;;;;
2022/11/13 09:56:04;;;;;;;12.15;5.55;;;;;;;;;;5030693;28;20105;-82
2022/11/13 09:59:00;;;;;;;10.77;5.28;;;;;;;;;;5042015;28;20029;-81
2022/11/13 10:01:48;;;;;;;12.35;6.35;;;;;;;;;;5041349;28;20402;-80
2022/11/13 10:04:57;;;;;;;14.95;7.43;;;;;;;;;;5038378;28;20030;-82
2022/11/13 10:10:50;;;;;;;14.45;6.57;;;;;;;;;;5012158;28;20052;-80
2022/11/13 10:19:52;;;;;;;;;;;;;;;;;;;;;
2022/11/13 10:22:49;;;;;;;8.82;4.95;;;;;;;;;;5015945;28;20317;-79
2022/11/13 10:25:42;;;;;;;;;;;;;;;;;;;;;
2022/11/13 10:28:53;;;;;;;7.93;4.68;;;;;;;;;;5035408;28;20037;-81
2022/11/13 10:34:46;;;;;;;10.35;4.90;;;;;;;;;;4910978;29;20050;-80
2022/11/13 10:37:29;;;;;;;9.65;4.32;;;;;;;;;;4933413;29;20039;-79
2022/11/13 10:43:26;;;;;;;7.30;3.80;;;;;;;;;;4999644;28;20481;-79
2022/11/13 10:46:12;;;;;;;6.97;3.85;;;;;;;;;;5015277;28;20064;-78
2022/11/13 10:48:56;;;;;;;9.82;4.40;;;;;;;;;;5033176;28;20514;-78
2022/11/13 10:51:44;;;;;;;;;;;;;;;;;;;;;
2022/11/13 10:54:45;;;;;;;5.05;2.85;;;;;;;;;;5020368;28;20470;-79
2022/11/13 10:58:01;;;;;;;8.65;4.50;;;;;;;;;;4970138;28;20065;-81
2022/11/13 11:00:49;;;;;;;6.65;3.15;;;;;;;;;;4996069;28;20034;-81
2022/11/13 11:03:23;;;;;;;9.20;4.35;;;;;;;;;;5013738;28;20026;-80
2022/11/13 11:09:14;;;;;;;10.73;4.20;;;;;;;;;;5012646;28;20444;-78
2022/11/13 11:15:30;;;;;;;10.73;4.65;;;;;;;;;;5013235;28;20060;-81
2022/11/13 11:18:06;;;;;;;10.50;4.90;;;;;;;;;;5013295;28;20025;-80
2022/11/13 11:20:46;;;;;;;9.52;5.07;;;;;;;;;;5012901;28;20022;-80
2022/11/13 11:23:48;;;;;;;9.23;4.60;;;;;;;;;;5020796;28;20036;-80
2022/11/13 11:29:46;;;;;;;10.55;5.07;;;;;;;;;;4970042;28;20038;-78
2022/11/13 11:32:28;;;;;;;6.78;3.35;;;;;;;;;;5022876;28;20033;-81
2022/11/13 11:35:15;;;;;;;7.13;3.67;;;;;;;;;;5031358;28;20040;-78
2022/11/13 11:37:49;;;;;;;7.25;4.55;;;;;;;;;;5024917;28;20053;-79
2022/11/13 11:40:46;;;;;;;11.43;5.65;;;;;;;;;;4994600;28;20030;-80
2022/11/13 11:43:17;;;;;;;9.85;4.65;;;;;;;;;;5011647;28;20060;-81
2022/11/13 11:48:43;;;;;;;7.57;4.05;;;;;;;;;;5005323;28;20042;-80
2022/11/13 11:51:38;;;;;;;11.02;3.50;;;;;;;;;;5011996;28;20026;-80
2022/11/13 11:54:30;;;;;;;7.93;4.45;;;;;;;;;;4995418;28;20032;-79
2022/11/13 11:57:20;;;;;;;7.15;4.00;;;;;;;;;;5008586;28;20041;-80
2022/11/13 12:00:11;;;;;;;8.18;4.40;;;;;;;;;;4994079;28;20036;-79
2022/11/13 12:03:00;;;;;;;6.22;3.78;;;;;;;;;;5010005;28;20117;-79
2022/11/13 12:05:34;;;;;;;10.73;5.85;;;;;;;;;;4981065;28;20060;-80
2022/11/13 12:08:18;;;;;;;8.57;4.88;;;;;;;;;;4991819;28;20102;-80
2022/11/13 12:10:59;;;;;;;11.27;5.95;;;;;;;;;;4991409;28;20563;-81
2022/11/13 12:13:46;;;;;;;10.32;5.43;;;;;;;;;;4992607;28;20439;-78
2022/11/13 12:16:54;;;;;;;11.93;5.68;;;;;;;;;;4992220;28;20046;-79
2022/11/13 12:19:51;;;;;;;13.32;6.45;;;;;;;;;;5009101;28;20038;-79
2022/11/13 12:22:25;;;;;;;11.13;5.85;;;;;;;;;;5012584;28;20033;-81
2022/11/13 12:25:12;;;;;;;11.88;6.05;;;;;;;;;;5011193;28;20045;-79
2022/11/13 12:27:40;;;;;;;13.43;5.40;;;;;;;;;;5012165;28;20026;-80
2022/11/13 12:30:36;;;;;;;6.93;4.05;;;;;;;;;;5012449;28;20037;-80
2022/11/13 12:33:07;;;;;;;12.90;6.35;;;;;;;;;;5019601;28;20425;-80
2022/11/13 12:35:32;;;;;;;7.80;4.53;;;;;;;;;;5018111;28;20056;-80
2022/11/13 12:38:07;;;;;;;7.18;3.50;;;;;;;;;;5036052;28;20038;-79
2022/11/13 12:40:38;;;;;;;11.40;6.07;;;;;;;;;;5036081;28;20509;-80
2022/11/13 12:43:29;;;;;;;10.50;6.53;;;;;;;;;;5036855;28;20509;-81
2022/11/13 12:45:59;;;;;;;11.52;6.78;;;;;;;;;;5026451;28;20037;-80
2022/11/13 12:48:31;;;;;;;11.73;6.28;;;;;;;;;;5017692;28;20509;-79
2022/11/13 12:50:59;;;;;;;11.65;6.70;;;;;;;;;;5035719;28;20029;-79
2022/11/13 12:53:27;;;;;;;13.68;6.95;;;;;;;;;;5018194;28;20029;-79
2022/11/13 12:55:59;;;;;;;9.07;4.68;;;;;;;;;;5035966;28;20053;-78
2022/11/13 12:58:27;;;;;;;11.70;6.03;;;;;;;;;;5035037;28;20035;-80
2022/11/13 13:01:09;;;;;;;12.57;6.30;;;;;;;;;;5017831;28;20461;-81
2022/11/13 13:03:51;;;;;;;11.75;6.10;;;;;;;;;;5020721;28;20030;-80
2022/11/13 13:06:53;;;;;;;8.13;5.05;;;;;;;;;;5015465;28;20071;-79
2022/11/13 13:09:31;;;;;;;14.57;6.95;;;;;;;;;;4997309;28;20022;-80
2022/11/13 13:12:17;;;;;;;14.02;7.28;;;;;;;;;;5015430;28;20553;-80
2022/11/13 13:15:03;;;;;;;13.35;5.65;;;;;;;;;;4999001;28;20026;-78
2022/11/13 13:17:29;;;;;;;15.07;6.20;;;;;;;;;;5005288;28;20065;-79
2022/11/13 13:20:17;;;;;;;10.90;5.55;;;;;;;;;;5034662;28;20026;-79
2022/11/13 13:22:54;;;;;;;12.85;7.00;;;;;;;;;;5023011;28;20045;-81
2022/11/13 13:25:25;;;;;;;10.07;5.47;;;;;;;;;;5034113;28;20030;-79
2022/11/13 13:28:13;;;;;;;15.75;8.43;;;;;;;;;;5034506;28;20025;-82
2022/11/13 13:31:03;;;;;;;17.48;7.38;;;;;;;;;;5033806;28;20029;-80
2022/11/13 13:33:40;;;;;;;18.08;7.68;;;;;;;;;;5015912;28;20069;-81
2022/11/13 13:36:21;;;;;;;13.77;6.60;;;;;;;;;;4996651;28;20565;-81
2022/11/13 13:39:16;;;;;;;17.48;7.75;;;;;;;;;;5015155;28;20029;-79
2022/11/13 13:42:07;;;;;;;11.45;6.35;;;;;;;;;;5014323;28;20025;-78
2022/11/13 13:44:44;;;;;;;14.50;7.65;;;;;;;;;;5014021;28;20033;-79
2022/11/13 13:47:39;;;;;;;13.40;6.85;;;;;;;;;;5024966;28;20033;-79
2022/11/13 13:50:13;;;;;;;11.77;6.55;;;;;;;;;;5008864;28;20041;-79
2022/11/13 13:52:39;;;;;;;15.02;8.05;;;;;;;;;;5034103;28;20040;-80
2022/11/13 13:55:06;;;;;;;12.65;6.57;;;;;;;;;;5016178;28;20030;-80
2022/11/13 13:57:33;;;;;;;14.73;7.45;;;;;;;;;;5015554;28;20061;-79
2022/11/13 13:59:59;;;;;;;16.20;7.88;;;;;;;;;;5034201;28;20093;-80
2022/11/13 14:02:24;;;;;;;15.15;6.32;;;;;;;;;;5020479;28;20034;-79
2022/11/13 14:04:52;;;;;;;17.17;8.90;;;;;;;;;;5016707;28;20033;-80
2022/11/13 14:07:26;;;;;;;13.55;7.82;;;;;;;;;;4998399;28;20380;-79
2022/11/13 14:10:17;;;;;;;14.18;7.97;;;;;;;;;;5017172;28;20045;-79
2022/11/13 14:12:44;;;;;;;15.57;6.78;;;;;;;;;;5016946;28;20029;-79
2022/11/13 14:15:20;;;;;;;17.20;8.73;;;;;;;;;;5016683;28;20040;-80
2022/11/13 14:17:45;;;;;;;17.42;8.35;;;;;;;;;;5017644;28;20446;-79
2022/11/13 14:20:11;;;;;;;11.55;6.43;;;;;;;;;;5016977;28;20026;-79
2022/11/13 14:22:38;;;;;;;12.82;7.22;;;;;;;;;;5016651;28;20030;-79
2022/11/13 14:25:04;;;;;;;19.05;9.40;;;;;;;;;;4998688;28;20022;-79
2022/11/13 14:27:30;;;;;;;16.50;8.27;;;;;;;;;;5017124;28;20039;-79
2022/11/13 14:30:02;;;;;;;19.30;9.70;;;;;;;;;;5017152;28;20029;-79
2022/11/13 14:32:33;;;;;;;14.27;7.55;;;;;;;;;;5017075;28;20034;-81
2022/11/13 14:35:03;;;;;;;17.65;9.68;;;;;;;;;;5016633;28;20022;-79
2022/11/13 14:37:37;;;;;;;18.60;8.20;;;;;;;;;;5016698;28;20109;-81
2022/11/13 14:40:19;;;;;;;17.05;8.02;;;;;;;;;;5019245;28;20030;-79
2022/11/13 14:42:54;;;;;;;19.23;10.50;;;;;;;;;;5037077;28;20021;-79
2022/11/13 14:45:25;;;;;;;20.15;9.73;;;;;;;;;;5019626;28;20026;-80
2022/11/13 14:48:20;;;;;;;14.98;8.23;;;;;;;;;;5037191;28;20128;-79
2022/11/13 14:50:59;;;;;;;21.02;9.57;;;;;;;;;;5036826;28;20022;-79
2022/11/13 14:53:36;;;;;;;21.38;10.02;;;;;;;;;;5017413;28;20018;-79
2022/11/13 14:56:10;;;;;;;17.88;9.30;;;;;;;;;;5035929;28;20037;-79
2022/11/13 14:58:45;;;;;;;20.30;9.60;;;;;;;;;;5036227;28;20100;-78
2022/11/13 15:01:24;;;;;;;21.58;11.48;;;;;;;;;;5035723;28;20018;-78
2022/11/13 15:03:52;;;;;;;23.10;11.05;;;;;;;;;;5036119;28;20438;-79
2022/11/13 15:06:22;;;;;;;21.55;10.40;;;;;;;;;;5035887;28;20047;-79
2022/11/13 15:08:56;;;;;;;21.85;10.85;;;;;;;;;;5034130;28;20025;-80
2022/11/13 15:11:24;;;;;;;22.27;11.27;;;;;;;;;;5018131;28;20558;-80
2022/11/13 15:13:49;;;;;;;15.10;7.75;;;;;;;;;;5035330;28;20038;-78
2022/11/13 15:16:26;;;;;;;26.67;12.77;;;;;;;;;;5035581;28;20331;-80
2022/11/13 15:19:01;;;;;;;21.77;11.07;;;;;;;;;;5018170;28;20397;-79
2022/11/13 15:21:26;;;;;;;19.15;10.20;;;;;;;;;;5018270;28;20024;-80
2022/11/13 15:23:52;;;;;;;23.17;10.32;;;;;;;;;;5015579;28;20425;-80
2022/11/13 15:26:17;;;;;;;23.80;11.20;;;;;;;;;;5016227;28;20538;-79
2022/11/13 15:28:42;;;;;;;21.30;10.90;;;;;;;;;;5016594;28;20076;-81
2022/11/13 15:31:28;;;;;;;27.00;10.93;;;;;;;;;;5015312;28;20052;-77
2022/11/13 15:33:54;;;;;;;22.90;11.93;;;;;;;;;;5016840;28;20034;-80
2022/11/13 15:36:19;;;;;;;28.58;11.80;;;;;;;;;;5016830;28;20133;-79
2022/11/13 15:38:45;;;;;;;20.95;10.60;;;;;;;;;;5035930;28;20022;-80
2022/11/13 15:41:16;;;;;;;23.38;10.68;;;;;;;;;;5035659;28;20033;-79
2022/11/13 15:43:44;;;;;;;20.55;9.25;;;;;;;;;;5036250;28;20029;-80
2022/11/13 15:46:16;;;;;;;23.83;12.02;;;;;;;;;;5035528;28;20021;-78
2022/11/13 15:48:41;;;;;;;24.10;11.88;;;;;;;;;;5017561;28;20029;-79